sensor_id;sensor_type;location;lat;lon;timestamp;pressure;altitude;pressure_sealevel;temperature;humidity
65659;BME280;60181;53.258;6.932;2023-10-13T00:03:52;101168.59;;;17.81;73.80
65659;BME280;60181;53.258;6.932;2023-10-13T00:08:12;101166.60;;;17.81;73.90
65659;BME280;60181;53.258;6.932;2023-10-13T00:12:32;101163.93;;;17.82;74.01
65659;BME280;60181;53.258;6.932;2023-10-13T00:16:52;101160.14;;;17.82;74.57
65659;BME280;60181;53.258;6.932;2023-10-13T00:21:12;101157.48;;;17.83;74.41
65659;BME280;60181;53.258;6.932;2023-10-13T00:25:32;101154.27;;;17.83;74.46
65659;BME280;60181;53.258;6.932;2023-10-13T00:29:52;101151.03;;;17.83;74.56
65659;BME280;60181;53.258;6.932;2023-10-13T00:34:12;101146.14;;;17.84;74.67
65659;BME280;60181;53.258;6.932;2023-10-13T00:38:31;101139.84;;;17.84;74.75
65659;BME280;60181;53.258;6.932;2023-10-13T00:42:52;101134.22;;;17.84;74.80
65659;BME280;60181;53.258;6.932;2023-10-13T00:47:11;101128.83;;;17.84;74.97
65659;BME280;60181;53.258;6.932;2023-10-13T00:51:31;101124.27;;;17.85;75.13
65659;BME280;60181;53.258;6.932;2023-10-13T00:55:51;101121.77;;;17.85;75.18
65659;BME280;60181;53.258;6.932;2023-10-13T01:00:12;101119.47;;;17.86;74.97
65659;BME280;60181;53.258;6.932;2023-10-13T01:04:31;101116.16;;;17.87;76.16
65659;BME280;60181;53.258;6.932;2023-10-13T01:08:59;101113.19;;;17.88;75.54
65659;BME280;60181;53.258;6.932;2023-10-13T01:13:11;101109.03;;;17.88;75.47
65659;BME280;60181;53.258;6.932;2023-10-13T01:17:31;101105.06;;;17.89;75.51
65659;BME280;60181;53.258;6.932;2023-10-13T01:21:51;101101.90;;;17.89;75.59
65659;BME280;60181;53.258;6.932;2023-10-13T01:26:12;101097.61;;;17.90;75.70
65659;BME280;60181;53.258;6.932;2023-10-13T01:30:31;101093.20;;;17.91;76.20
65659;BME280;60181;53.258;6.932;2023-10-13T01:34:51;101087.75;;;17.91;76.02
65659;BME280;60181;53.258;6.932;2023-10-13T01:39:11;101081.86;;;17.91;76.14
65659;BME280;60181;53.258;6.932;2023-10-13T01:43:31;101076.72;;;17.91;76.31
65659;BME280;60181;53.258;6.932;2023-10-13T01:47:51;101072.41;;;17.91;76.25
65659;BME280;60181;53.258;6.932;2023-10-13T01:52:11;101066.28;;;17.91;76.42
65659;BME280;60181;53.258;6.932;2023-10-13T01:56:31;101059.66;;;17.91;76.50
65659;BME280;60181;53.258;6.932;2023-10-13T02:00:51;101051.35;;;17.92;76.34
65659;BME280;60181;53.258;6.932;2023-10-13T02:05:11;101041.42;;;17.92;76.41
65659;BME280;60181;53.258;6.932;2023-10-13T02:09:31;101033.62;;;17.93;76.55
65659;BME280;60181;53.258;6.932;2023-10-13T02:13:51;101026.65;;;17.93;76.67
65659;BME280;60181;53.258;6.932;2023-10-13T02:18:13;101019.95;;;17.93;76.85
65659;BME280;60181;53.258;6.932;2023-10-13T02:22:31;101013.49;;;17.93;76.91
65659;BME280;60181;53.258;6.932;2023-10-13T02:26:51;101007.04;;;17.92;77.11
65659;BME280;60181;53.258;6.932;2023-10-13T02:31:11;100999.64;;;17.92;77.10
65659;BME280;60181;53.258;6.932;2023-10-13T02:35:31;100994.09;;;17.92;77.16
65659;BME280;60181;53.258;6.932;2023-10-13T02:39:51;100987.80;;;17.92;77.20
65659;BME280;60181;53.258;6.932;2023-10-13T02:44:11;100981.91;;;17.92;77.12
65659;BME280;60181;53.258;6.932;2023-10-13T02:48:31;100975.94;;;17.92;77.07
65659;BME280;60181;53.258;6.932;2023-10-13T02:52:51;100970.82;;;17.92;77.15
65659;BME280;60181;53.258;6.932;2023-10-13T02:57:11;100966.09;;;17.93;77.37
65659;BME280;60181;53.258;6.932;2023-10-13T03:01:34;100961.19;;;17.93;77.33
65659;BME280;60181;53.258;6.932;2023-10-13T03:05:51;100956.49;;;17.93;77.51
65659;BME280;60181;53.258;6.932;2023-10-13T03:10:11;100951.44;;;17.93;77.75
65659;BME280;60181;53.258;6.932;2023-10-13T03:14:31;100945.04;;;17.94;77.46
65659;BME280;60181;53.258;6.932;2023-10-13T03:18:51;100939.48;;;17.94;77.78
65659;BME280;60181;53.258;6.932;2023-10-13T03:23:11;100933.51;;;17.94;77.51
65659;BME280;60181;53.258;6.932;2023-10-13T03:27:31;100928.40;;;17.94;77.70
65659;BME280;60181;53.258;6.932;2023-10-13T03:31:51;100921.94;;;17.94;77.92
65659;BME280;60181;53.258;6.932;2023-10-13T03:36:13;100916.28;;;17.95;77.01
65659;BME280;60181;53.258;6.932;2023-10-13T03:40:31;100910.58;;;17.96;76.48
65659;BME280;60181;53.258;6.932;2023-10-13T03:44:51;100903.12;;;17.97;77.10
65659;BME280;60181;53.258;6.932;2023-10-13T03:49:11;100895.12;;;17.98;77.27
65659;BME280;60181;53.258;6.932;2023-10-13T03:53:34;100888.06;;;17.98;77.30
65659;BME280;60181;53.258;6.932;2023-10-13T03:57:51;100880.10;;;17.99;77.66
65659;BME280;60181;53.258;6.932;2023-10-13T04:02:11;100871.22;;;18.01;78.32
65659;BME280;60181;53.258;6.932;2023-10-13T04:06:31;100862.45;;;18.01;77.59
65659;BME280;60181;53.258;6.932;2023-10-13T04:10:51;100852.51;;;18.02;78.71
65659;BME280;60181;53.258;6.932;2023-10-13T04:15:11;100843.05;;;18.03;78.16
65659;BME280;60181;53.258;6.932;2023-10-13T04:19:31;100832.87;;;18.02;77.80
65659;BME280;60181;53.258;6.932;2023-10-13T04:23:51;100822.49;;;18.01;77.58
65659;BME280;60181;53.258;6.932;2023-10-13T04:28:12;100812.72;;;18.00;77.38
65659;BME280;60181;53.258;6.932;2023-10-13T04:32:31;100803.13;;;17.99;77.11
65659;BME280;60181;53.258;6.932;2023-10-13T04:36:51;100793.27;;;17.98;76.91
65659;BME280;60181;53.258;6.932;2023-10-13T04:41:11;100780.80;;;17.97;76.69
65659;BME280;60181;53.258;6.932;2023-10-13T04:45:31;100769.70;;;17.96;76.54
65659;BME280;60181;53.258;6.932;2023-10-13T04:49:51;100757.76;;;17.95;76.42
65659;BME280;60181;53.258;6.932;2023-10-13T04:54:11;100746.00;;;17.94;76.40
65659;BME280;60181;53.258;6.932;2023-10-13T04:58:31;100735.47;;;17.93;76.16
65659;BME280;60181;53.258;6.932;2023-10-13T05:02:51;100726.79;;;17.92;76.08
65659;BME280;60181;53.258;6.932;2023-10-13T05:07:11;100717.52;;;17.91;76.06
65659;BME280;60181;53.258;6.932;2023-10-13T05:11:31;100708.48;;;17.90;75.91
65659;BME280;60181;53.258;6.932;2023-10-13T05:15:51;100701.03;;;17.90;75.83
65659;BME280;60181;53.258;6.932;2023-10-13T05:20:11;100693.24;;;17.89;75.74
65659;BME280;60181;53.258;6.932;2023-10-13T05:24:31;100683.87;;;17.89;75.71
65659;BME280;60181;53.258;6.932;2023-10-13T05:28:51;100674.42;;;17.89;75.63
65659;BME280;60181;53.258;6.932;2023-10-13T05:33:11;100665.66;;;17.88;75.63
65659;BME280;60181;53.258;6.932;2023-10-13T05:37:31;100659.94;;;17.88;75.60
65659;BME280;60181;53.258;6.932;2023-10-13T05:41:51;100652.40;;;17.88;75.53
65659;BME280;60181;53.258;6.932;2023-10-13T05:46:11;100644.12;;;17.88;75.52
65659;BME280;60181;53.258;6.932;2023-10-13T05:50:31;100635.99;;;17.87;75.47
65659;BME280;60181;53.258;6.932;2023-10-13T05:54:51;100624.98;;;17.87;75.48
65659;BME280;60181;53.258;6.932;2023-10-13T05:59:11;100612.64;;;17.86;75.33
65659;BME280;60181;53.258;6.932;2023-10-13T06:03:31;100602.59;;;17.86;75.40
65659;BME280;60181;53.258;6.932;2023-10-13T06:07:51;100596.06;;;17.86;75.34
65659;BME280;60181;53.258;6.932;2023-10-13T06:12:11;100588.29;;;17.85;75.37
65659;BME280;60181;53.258;6.932;2023-10-13T06:16:31;100581.23;;;17.85;75.32
65659;BME280;60181;53.258;6.932;2023-10-13T06:20:51;100574.77;;;17.85;75.24
65659;BME280;60181;53.258;6.932;2023-10-13T06:25:11;100568.91;;;17.85;75.20
65659;BME280;60181;53.258;6.932;2023-10-13T06:29:31;100564.26;;;17.85;75.25
65659;BME280;60181;53.258;6.932;2023-10-13T06:33:51;100559.95;;;17.86;75.12
65659;BME280;60181;53.258;6.932;2023-10-13T06:38:11;100555.80;;;17.87;75.13
65659;BME280;60181;53.258;6.932;2023-10-13T06:42:31;100550.73;;;17.87;75.14
65659;BME280;60181;53.258;6.932;2023-10-13T06:46:51;100546.36;;;17.88;75.20
65659;BME280;60181;53.258;6.932;2023-10-13T06:51:11;100542.79;;;17.88;75.22
65659;BME280;60181;53.258;6.932;2023-10-13T06:55:31;100539.97;;;17.88;75.21
65659;BME280;60181;53.258;6.932;2023-10-13T06:59:51;100537.06;;;17.88;75.18
65659;BME280;60181;53.258;6.932;2023-10-13T07:04:11;100533.17;;;17.89;75.51
65659;BME280;60181;53.258;6.932;2023-10-13T07:08:31;100531.34;;;17.90;75.35
65659;BME280;60181;53.258;6.932;2023-10-13T07:12:51;100527.45;;;17.90;75.41
65659;BME280;60181;53.258;6.932;2023-10-13T07:17:11;100526.19;;;17.90;75.28
65659;BME280;60181;53.258;6.932;2023-10-13T07:21:32;100525.29;;;17.90;75.44
65659;BME280;60181;53.258;6.932;2023-10-13T07:25:51;100524.61;;;17.91;75.24
65659;BME280;60181;53.258;6.932;2023-10-13T07:30:11;100521.96;;;17.91;75.16
65659;BME280;60181;53.258;6.932;2023-10-13T07:34:31;100518.98;;;17.91;75.16
65659;BME280;60181;53.258;6.932;2023-10-13T07:38:51;100515.59;;;17.90;75.14
65659;BME280;60181;53.258;6.932;2023-10-13T07:43:11;100514.34;;;17.91;75.05
65659;BME280;60181;53.258;6.932;2023-10-13T07:47:31;100512.45;;;17.91;75.05
65659;BME280;60181;53.258;6.932;2023-10-13T07:51:51;100510.21;;;17.91;75.00
65659;BME280;60181;53.258;6.932;2023-10-13T07:56:11;100509.12;;;17.91;74.97
65659;BME280;60181;53.258;6.932;2023-10-13T08:00:31;100507.30;;;17.91;74.96
65659;BME280;60181;53.258;6.932;2023-10-13T08:04:51;100504.05;;;17.92;74.94
65659;BME280;60181;53.258;6.932;2023-10-13T08:09:11;100497.69;;;17.91;74.98
65659;BME280;60181;53.258;6.932;2023-10-13T08:13:31;100490.65;;;17.91;74.91
65659;BME280;60181;53.258;6.932;2023-10-13T08:17:51;100484.02;;;17.91;74.87
65659;BME280;60181;53.258;6.932;2023-10-13T08:22:11;100478.47;;;17.91;74.87
65659;BME280;60181;53.258;6.932;2023-10-13T08:26:31;100469.68;;;17.91;74.83
65659;BME280;60181;53.258;6.932;2023-10-13T08:30:51;100459.08;;;17.91;74.84
65659;BME280;60181;53.258;6.932;2023-10-13T08:35:11;100447.48;;;17.91;74.79
65659;BME280;60181;53.258;6.932;2023-10-13T08:39:31;100436.11;;;17.92;74.75
65659;BME280;60181;53.258;6.932;2023-10-13T08:43:51;100425.86;;;17.92;74.71
65659;BME280;60181;53.258;6.932;2023-10-13T08:48:11;100415.16;;;17.92;74.71
65659;BME280;60181;53.258;6.932;2023-10-13T08:52:31;100405.45;;;17.93;74.65
65659;BME280;60181;53.258;6.932;2023-10-13T08:56:51;100396.69;;;17.93;74.65
65659;BME280;60181;53.258;6.932;2023-10-13T09:01:11;100388.78;;;17.94;74.60
65659;BME280;60181;53.258;6.932;2023-10-13T09:05:31;100380.75;;;17.95;74.52
65659;BME280;60181;53.258;6.932;2023-10-13T09:09:51;100371.12;;;17.96;74.51
65659;BME280;60181;53.258;6.932;2023-10-13T09:14:14;100359.18;;;17.96;74.50
65659;BME280;60181;53.258;6.932;2023-10-13T09:18:31;100347.17;;;17.97;74.47
65659;BME280;60181;53.258;6.932;2023-10-13T09:22:51;100338.90;;;17.98;74.45
65659;BME280;60181;53.258;6.932;2023-10-13T09:27:11;100333.26;;;17.99;74.44
65659;BME280;60181;53.258;6.932;2023-10-13T09:31:31;100322.08;;;18.00;74.46
65659;BME280;60181;53.258;6.932;2023-10-13T09:35:51;100314.28;;;18.01;74.40
65659;BME280;60181;53.258;6.932;2023-10-13T09:40:11;100307.39;;;18.02;74.34
65659;BME280;60181;53.258;6.932;2023-10-13T09:44:31;100298.92;;;18.03;74.43
65659;BME280;60181;53.258;6.932;2023-10-13T09:48:51;100288.97;;;18.04;74.41
65659;BME280;60181;53.258;6.932;2023-10-13T09:53:11;100281.16;;;18.05;74.50
65659;BME280;60181;53.258;6.932;2023-10-13T09:57:33;100278.02;;;18.05;74.46
65659;BME280;60181;53.258;6.932;2023-10-13T10:01:51;100272.53;;;18.06;74.45
65659;BME280;60181;53.258;6.932;2023-10-13T10:06:11;100262.50;;;18.07;74.40
65659;BME280;60181;53.258;6.932;2023-10-13T10:10:44;100259.42;;;18.08;74.26
65659;BME280;60181;53.258;6.932;2023-10-13T10:19:11;100252.34;;;18.10;74.21
65659;BME280;60181;53.258;6.932;2023-10-13T10:23:31;100248.69;;;18.11;74.19
65659;BME280;60181;53.258;6.932;2023-10-13T10:27:57;100245.95;;;18.12;74.20
65659;BME280;60181;53.258;6.932;2023-10-13T10:32:14;100244.37;;;18.12;74.28
65659;BME280;60181;53.258;6.932;2023-10-13T10:36:31;100241.55;;;18.12;74.29
65659;BME280;60181;53.258;6.932;2023-10-13T10:40:54;100237.91;;;18.12;74.33
65659;BME280;60181;53.258;6.932;2023-10-13T10:45:11;100232.26;;;18.12;74.34
65659;BME280;60181;53.258;6.932;2023-10-13T10:49:36;100225.87;;;18.13;74.47
65659;BME280;60181;53.258;6.932;2023-10-13T10:53:51;100219.57;;;18.14;75.17
65659;BME280;60181;53.258;6.932;2023-10-13T10:58:11;100212.67;;;18.15;75.28
65659;BME280;60181;53.258;6.932;2023-10-13T11:02:31;100203.64;;;18.16;75.38
65659;BME280;60181;53.258;6.932;2023-10-13T11:06:52;100196.92;;;18.16;75.53
65659;BME280;60181;53.258;6.932;2023-10-13T11:11:11;100191.17;;;18.17;75.50
65659;BME280;60181;53.258;6.932;2023-10-13T11:15:31;100183.62;;;18.18;75.56
65659;BME280;60181;53.258;6.932;2023-10-13T11:19:51;100175.23;;;18.19;75.51
65659;BME280;60181;53.258;6.932;2023-10-13T11:24:11;100171.72;;;18.21;75.70
65659;BME280;60181;53.258;6.932;2023-10-13T11:28:31;100164.35;;;18.22;75.57
65659;BME280;60181;53.258;6.932;2023-10-13T11:33:00;100159.61;;;18.23;75.62
65659;BME280;60181;53.258;6.932;2023-10-13T11:37:11;100152.87;;;18.24;75.68
65659;BME280;60181;53.258;6.932;2023-10-13T11:41:31;100147.16;;;18.24;75.76
65659;BME280;60181;53.258;6.932;2023-10-13T11:45:51;100142.67;;;18.24;75.77
65659;BME280;60181;53.258;6.932;2023-10-13T11:50:11;100143.52;;;18.24;75.72
65659;BME280;60181;53.258;6.932;2023-10-13T11:54:31;100145.81;;;18.25;75.73
65659;BME280;60181;53.258;6.932;2023-10-13T11:58:51;100143.17;;;18.26;75.83
65659;BME280;60181;53.258;6.932;2023-10-13T12:03:11;100139.26;;;18.26;75.84
65659;BME280;60181;53.258;6.932;2023-10-13T12:07:31;100131.72;;;18.27;75.69
65659;BME280;60181;53.258;6.932;2023-10-13T12:11:51;100125.33;;;18.27;75.44
65659;BME280;60181;53.258;6.932;2023-10-13T12:16:11;100118.78;;;18.27;75.57
65659;BME280;60181;53.258;6.932;2023-10-13T12:20:31;100113.81;;;18.27;75.54
65659;BME280;60181;53.258;6.932;2023-10-13T12:24:51;100108.34;;;18.27;75.48
65659;BME280;60181;53.258;6.932;2023-10-13T12:29:11;100101.93;;;18.26;75.47
65659;BME280;60181;53.258;6.932;2023-10-13T12:33:31;100095.90;;;18.26;75.40
65659;BME280;60181;53.258;6.932;2023-10-13T12:37:51;100092.18;;;18.26;75.45
65659;BME280;60181;53.258;6.932;2023-10-13T12:42:10;100089.53;;;18.26;75.43
65659;BME280;60181;53.258;6.932;2023-10-13T12:46:30;100089.45;;;18.26;75.42
65659;BME280;60181;53.258;6.932;2023-10-13T12:50:50;100087.95;;;18.25;75.39
65659;BME280;60181;53.258;6.932;2023-10-13T12:55:10;100088.81;;;18.24;75.43
65659;BME280;60181;53.258;6.932;2023-10-13T12:59:30;100090.19;;;18.24;75.31
65659;BME280;60181;53.258;6.932;2023-10-13T13:03:51;100089.29;;;18.24;75.23
65659;BME280;60181;53.258;6.932;2023-10-13T13:08:10;100087.14;;;18.24;75.16
65659;BME280;60181;53.258;6.932;2023-10-13T13:12:30;100084.08;;;18.24;75.15
65659;BME280;60181;53.258;6.932;2023-10-13T13:16:50;100080.13;;;18.23;75.19
65659;BME280;60181;53.258;6.932;2023-10-13T13:21:10;100077.47;;;18.23;75.16
65659;BME280;60181;53.258;6.932;2023-10-13T13:25:31;100076.73;;;18.22;75.13
65659;BME280;60181;53.258;6.932;2023-10-13T13:29:50;100070.19;;;18.22;75.16
65659;BME280;60181;53.258;6.932;2023-10-13T13:34:10;100063.30;;;18.22;75.14
65659;BME280;60181;53.258;6.932;2023-10-13T13:38:30;100051.62;;;18.22;75.11
65659;BME280;60181;53.258;6.932;2023-10-13T13:42:50;100046.64;;;18.22;75.10
65659;BME280;60181;53.258;6.932;2023-10-13T13:47:10;100046.00;;;18.21;75.12
65659;BME280;60181;53.258;6.932;2023-10-13T13:51:30;100045.01;;;18.21;75.12
65659;BME280;60181;53.258;6.932;2023-10-13T13:55:50;100040.77;;;18.21;75.10
65659;BME280;60181;53.258;6.932;2023-10-13T14:00:11;100036.28;;;18.21;75.10
65659;BME280;60181;53.258;6.932;2023-10-13T14:04:30;100031.58;;;18.21;75.08
65659;BME280;60181;53.258;6.932;2023-10-13T14:08:51;100030.17;;;18.20;75.05
65659;BME280;60181;53.258;6.932;2023-10-13T14:13:10;100027.19;;;18.20;75.02
65659;BME280;60181;53.258;6.932;2023-10-13T14:17:30;100023.30;;;18.20;75.05
65659;BME280;60181;53.258;6.932;2023-10-13T14:21:50;100020.15;;;18.20;75.05
65659;BME280;60181;53.258;6.932;2023-10-13T14:26:13;100012.53;;;18.20;74.99
65659;BME280;60181;53.258;6.932;2023-10-13T14:30:30;100004.81;;;18.20;74.97
65659;BME280;60181;53.258;6.932;2023-10-13T14:34:50;99999.66;;;18.21;75.20
65659;BME280;60181;53.258;6.932;2023-10-13T14:39:10;99996.09;;;18.22;75.33
65659;BME280;60181;53.258;6.932;2023-10-13T14:43:30;99994.50;;;18.22;75.32
65659;BME280;60181;53.258;6.932;2023-10-13T14:47:50;99992.18;;;18.22;75.34
65659;BME280;60181;53.258;6.932;2023-10-13T14:52:10;99989.69;;;18.22;75.30
65659;BME280;60181;53.258;6.932;2023-10-13T14:56:30;99985.71;;;18.22;75.29
65659;BME280;60181;53.258;6.932;2023-10-13T15:00:50;99982.06;;;18.22;75.25
65659;BME280;60181;53.258;6.932;2023-10-13T15:05:10;99981.50;;;18.22;75.27
65659;BME280;60181;53.258;6.932;2023-10-13T15:09:30;99982.92;;;18.21;75.21
65659;BME280;60181;53.258;6.932;2023-10-13T15:13:50;99986.16;;;18.21;75.25
65659;BME280;60181;53.258;6.932;2023-10-13T15:18:10;99991.72;;;18.20;75.24
65659;BME280;60181;53.258;6.932;2023-10-13T15:22:30;99994.45;;;18.20;75.31
65659;BME280;60181;53.258;6.932;2023-10-13T15:26:50;99997.46;;;18.19;75.31
65659;BME280;60181;53.258;6.932;2023-10-13T15:31:11;99998.78;;;18.19;75.47
65659;BME280;60181;53.258;6.932;2023-10-13T15:35:30;99999.38;;;18.18;75.23
65659;BME280;60181;53.258;6.932;2023-10-13T15:39:50;100000.79;;;18.18;75.25
65659;BME280;60181;53.258;6.932;2023-10-13T15:44:11;99999.95;;;18.17;75.32
65659;BME280;60181;53.258;6.932;2023-10-13T15:48:31;99999.81;;;18.17;75.31
65659;BME280;60181;53.258;6.932;2023-10-13T15:52:50;100000.23;;;18.17;75.24
65659;BME280;60181;53.258;6.932;2023-10-13T15:57:10;100000.32;;;18.16;75.20
65659;BME280;60181;53.258;6.932;2023-10-13T16:01:30;99999.42;;;18.16;75.20
65659;BME280;60181;53.258;6.932;2023-10-13T16:05:50;99996.20;;;18.15;75.21
65659;BME280;60181;53.258;6.932;2023-10-13T16:10:11;99993.61;;;18.15;75.22
65659;BME280;60181;53.258;6.932;2023-10-13T16:14:30;99990.06;;;18.15;75.21
65659;BME280;60181;53.258;6.932;2023-10-13T16:18:51;99983.28;;;18.14;75.40
65659;BME280;60181;53.258;6.932;2023-10-13T16:23:10;99980.69;;;18.14;75.20
65659;BME280;60181;53.258;6.932;2023-10-13T16:27:30;99976.22;;;18.14;75.19
65659;BME280;60181;53.258;6.932;2023-10-13T16:31:50;99973.00;;;18.14;75.33
65659;BME280;60181;53.258;6.932;2023-10-13T16:36:10;99969.05;;;18.13;75.29
65659;BME280;60181;53.258;6.932;2023-10-13T16:40:30;99966.72;;;18.13;75.31
65659;BME280;60181;53.258;6.932;2023-10-13T16:44:50;99963.58;;;18.13;75.31
65659;BME280;60181;53.258;6.932;2023-10-13T16:49:10;99958.20;;;18.13;75.41
65659;BME280;60181;53.258;6.932;2023-10-13T16:53:33;99955.54;;;18.13;75.34
65659;BME280;60181;53.258;6.932;2023-10-13T16:57:50;99954.05;;;18.13;75.24
65659;BME280;60181;53.258;6.932;2023-10-13T17:02:10;99951.82;;;18.12;75.37
65659;BME280;60181;53.258;6.932;2023-10-13T17:06:30;99950.09;;;18.12;75.36
65659;BME280;60181;53.258;6.932;2023-10-13T17:10:50;99947.34;;;18.12;75.43
65659;BME280;60181;53.258;6.932;2023-10-13T17:15:10;99946.94;;;18.12;75.39
65659;BME280;60181;53.258;6.932;2023-10-13T17:19:30;99948.36;;;18.11;75.32
65659;BME280;60181;53.258;6.932;2023-10-13T17:23:51;99949.61;;;18.11;75.32
65659;BME280;60181;53.258;6.932;2023-10-13T17:28:10;99949.44;;;18.11;75.31
65659;BME280;60181;53.258;6.932;2023-10-13T17:32:31;99947.78;;;18.11;75.39
65659;BME280;60181;53.258;6.932;2023-10-13T17:36:50;99949.03;;;18.10;75.41
65659;BME280;60181;53.258;6.932;2023-10-13T17:41:11;99946.31;;;18.10;75.35
65659;BME280;60181;53.258;6.932;2023-10-13T17:45:33;99945.04;;;18.10;75.40
65659;BME280;60181;53.258;6.932;2023-10-13T17:49:50;99942.56;;;18.10;75.35
65659;BME280;60181;53.258;6.932;2023-10-13T17:54:10;99938.75;;;18.10;75.42
65659;BME280;60181;53.258;6.932;2023-10-13T17:58:30;99935.03;;;18.09;75.40
65659;BME280;60181;53.258;6.932;2023-10-13T18:02:50;99933.54;;;18.09;75.39
65659;BME280;60181;53.258;6.932;2023-10-13T18:07:10;99933.87;;;18.09;75.17
65659;BME280;60181;53.258;6.932;2023-10-13T18:11:30;99933.37;;;18.09;75.33
65659;BME280;60181;53.258;6.932;2023-10-13T18:15:50;99928.07;;;18.09;75.41
65659;BME280;60181;53.258;6.932;2023-10-13T18:20:10;99922.20;;;18.09;75.49
65659;BME280;60181;53.258;6.932;2023-10-13T18:24:30;99917.49;;;18.09;75.44
65659;BME280;60181;53.258;6.932;2023-10-13T18:28:50;99913.34;;;18.09;75.34
65659;BME280;60181;53.258;6.932;2023-10-13T18:33:10;99912.52;;;18.09;75.12
65659;BME280;60181;53.258;6.932;2023-10-13T18:37:30;99911.77;;;18.09;75.07
65659;BME280;60181;53.258;6.932;2023-10-13T18:41:50;99910.53;;;18.09;75.24
65659;BME280;60181;53.258;6.932;2023-10-13T18:46:10;99909.87;;;18.09;75.23
65659;BME280;60181;53.258;6.932;2023-10-13T18:50:30;99911.00;;;18.09;75.15
65659;BME280;60181;53.258;6.932;2023-10-13T18:54:50;99908.94;;;18.09;75.33
65659;BME280;60181;53.258;6.932;2023-10-13T18:59:10;99906.45;;;18.09;75.32
65659;BME280;60181;53.258;6.932;2023-10-13T19:03:30;99901.58;;;18.09;75.38
65659;BME280;60181;53.258;6.932;2023-10-13T19:07:50;99895.54;;;18.09;75.36
65659;BME280;60181;53.258;6.932;2023-10-13T19:12:10;99891.06;;;18.09;75.37
65659;BME280;60181;53.258;6.932;2023-10-13T19:16:30;99884.77;;;18.09;75.34
65659;BME280;60181;53.258;6.932;2023-10-13T19:20:50;99878.53;;;18.08;75.36
65659;BME280;60181;53.258;6.932;2023-10-13T19:25:10;99873.89;;;18.08;75.33
65659;BME280;60181;53.258;6.932;2023-10-13T19:29:30;99867.86;;;18.08;75.35
65659;BME280;60181;53.258;6.932;2023-10-13T19:33:50;99861.39;;;18.08;75.33
65659;BME280;60181;53.258;6.932;2023-10-13T19:38:10;99852.53;;;18.08;75.30
65659;BME280;60181;53.258;6.932;2023-10-13T19:42:30;99845.24;;;18.08;75.39
65659;BME280;60181;53.258;6.932;2023-10-13T19:46:50;99839.28;;;18.08;75.31
65659;BME280;60181;53.258;6.932;2023-10-13T19:51:10;99833.15;;;18.08;75.37
65659;BME280;60181;53.258;6.932;2023-10-13T19:55:39;99826.11;;;18.08;75.38
65659;BME280;60181;53.258;6.932;2023-10-13T19:59:50;99823.04;;;18.08;75.28
65659;BME280;60181;53.258;6.932;2023-10-13T20:04:10;99819.65;;;18.08;75.36
65659;BME280;60181;53.258;6.932;2023-10-13T20:08:30;99814.90;;;18.07;75.34
65659;BME280;60181;53.258;6.932;2023-10-13T20:12:50;99810.93;;;18.07;75.40
65659;BME280;60181;53.258;6.932;2023-10-13T20:17:10;99804.97;;;18.07;75.36
65659;BME280;60181;53.258;6.932;2023-10-13T20:21:30;99800.59;;;18.08;75.62
65659;BME280;60181;53.258;6.932;2023-10-13T20:25:50;99795.03;;;18.08;75.68
65659;BME280;60181;53.258;6.932;2023-10-13T20:30:10;99787.81;;;18.08;75.59
65659;BME280;60181;53.258;6.932;2023-10-13T20:34:30;99780.52;;;18.08;75.65
65659;BME280;60181;53.258;6.932;2023-10-13T20:38:50;99777.27;;;18.08;75.65
65659;BME280;60181;53.258;6.932;2023-10-13T20:43:10;99767.92;;;18.08;75.67
65659;BME280;60181;53.258;6.932;2023-10-13T20:47:30;99757.42;;;18.08;75.63
65659;BME280;60181;53.258;6.932;2023-10-13T20:51:50;99748.21;;;18.09;75.62
65659;BME280;60181;53.258;6.932;2023-10-13T20:56:10;99743.78;;;18.10;75.67
65659;BME280;60181;53.258;6.932;2023-10-13T21:00:30;99739.18;;;18.11;75.79
65659;BME280;60181;53.258;6.932;2023-10-13T21:04:50;99729.49;;;18.12;75.80
65659;BME280;60181;53.258;6.932;2023-10-13T21:09:10;99721.88;;;18.12;75.89
65659;BME280;60181;53.258;6.932;2023-10-13T21:13:30;99716.80;;;18.12;75.98
65659;BME280;60181;53.258;6.932;2023-10-13T21:17:50;99712.97;;;18.13;76.12
65659;BME280;60181;53.258;6.932;2023-10-13T21:22:10;99711.08;;;18.13;76.16
65659;BME280;60181;53.258;6.932;2023-10-13T21:26:30;99709.49;;;18.13;76.32
65659;BME280;60181;53.258;6.932;2023-10-13T21:30:50;99706.67;;;18.13;76.42
65659;BME280;60181;53.258;6.932;2023-10-13T21:35:10;99745.60;;;18.14;76.57
65659;BME280;60181;53.258;6.932;2023-10-13T21:39:30;99777.45;;;18.13;76.70
65659;BME280;60181;53.258;6.932;2023-10-13T21:43:50;99805.97;;;18.12;75.58
65659;BME280;60181;53.258;6.932;2023-10-13T21:48:10;99825.64;;;18.11;75.47
65659;BME280;60181;53.258;6.932;2023-10-13T21:52:30;99837.32;;;18.10;75.14
65659;BME280;60181;53.258;6.932;2023-10-13T21:56:50;99847.38;;;18.08;74.92
65659;BME280;60181;53.258;6.932;2023-10-13T22:01:10;99855.61;;;18.07;74.62
65659;BME280;60181;53.258;6.932;2023-10-13T22:05:30;99865.56;;;18.06;74.67
65659;BME280;60181;53.258;6.932;2023-10-13T22:09:50;99874.37;;;18.05;74.64
65659;BME280;60181;53.258;6.932;2023-10-13T22:14:10;99881.67;;;18.04;74.57
65659;BME280;60181;53.258;6.932;2023-10-13T22:18:30;99890.64;;;18.03;74.73
65659;BME280;60181;53.258;6.932;2023-10-13T22:22:50;99896.80;;;18.03;74.67
65659;BME280;60181;53.258;6.932;2023-10-13T22:27:10;99901.61;;;18.01;74.45
65659;BME280;60181;53.258;6.932;2023-10-13T22:31:30;99909.26;;;18.01;74.40
65659;BME280;60181;53.258;6.932;2023-10-13T22:35:50;99914.65;;;18.00;74.39
65659;BME280;60181;53.258;6.932;2023-10-13T22:40:10;99920.76;;;18.00;74.10
65659;BME280;60181;53.258;6.932;2023-10-13T22:44:30;99922.55;;;17.99;74.12
65659;BME280;60181;53.258;6.932;2023-10-13T22:48:50;99921.80;;;17.98;73.80